createdAt,value
2023-08-11T00:00:09.965Z,65.50
2023-08-11T00:02:41.383Z,66.00
2023-08-11T00:05:10.159Z,66.00
2023-08-11T00:07:38.525Z,66.10
2023-08-11T00:10:09.470Z,66.10
2023-08-11T00:12:37.683Z,66.60
2023-08-11T00:15:08.018Z,66.50
2023-08-11T00:17:36.339Z,66.40
2023-08-11T00:20:07.272Z,66.70
2023-08-11T00:22:35.427Z,66.70
2023-08-11T00:25:03.816Z,66.70
2023-08-11T00:27:33.459Z,66.60
2023-08-11T00:30:02.289Z,66.70
2023-08-11T00:32:31.085Z,66.70
2023-08-11T00:34:59.454Z,66.90
2023-08-11T00:37:28.451Z,67.30
2023-08-11T00:39:56.610Z,67.30
2023-08-11T00:42:25.824Z,67.40
2023-08-11T00:44:59.158Z,67.20
2023-08-11T00:47:28.608Z,67.30
2023-08-11T00:49:57.125Z,67.10
2023-08-11T00:52:25.447Z,67.00
2023-08-11T00:54:55.623Z,66.90
2023-08-11T00:57:24.019Z,66.90
2023-08-11T00:59:52.542Z,66.90
2023-08-11T01:02:23.096Z,67.10
2023-08-11T01:04:51.524Z,67.20
2023-08-11T01:07:25.659Z,67.00
2023-08-11T01:10:01.054Z,67.30
2023-08-11T01:12:36.829Z,67.50
2023-08-11T01:15:13.009Z,67.30
2023-08-11T01:17:45.129Z,67.20
2023-08-11T01:20:17.216Z,67.30
2023-08-11T01:22:48.011Z,67.30
2023-08-11T01:25:18.266Z,67.30
2023-08-11T01:27:48.693Z,67.60
2023-08-11T01:30:18.977Z,67.60
2023-08-11T01:32:47.403Z,67.50
2023-08-11T01:35:25.481Z,67.80
2023-08-11T01:38:03.833Z,67.60
2023-08-11T01:40:33.619Z,67.70
2023-08-11T01:43:05.194Z,68.00
2023-08-11T01:45:34.415Z,67.90
2023-08-11T01:48:03.921Z,67.70
2023-08-11T01:50:33.629Z,67.90
2023-08-11T01:53:01.885Z,68.30
2023-08-11T01:55:30.522Z,68.30
2023-08-11T01:58:02.571Z,68.50
2023-08-11T02:00:30.752Z,68.60
2023-08-11T02:03:00.225Z,68.60
2023-08-11T02:05:30.520Z,68.80
2023-08-11T02:08:01.097Z,69.00
2023-08-11T02:10:31.340Z,69.10
2023-08-11T02:13:02.067Z,69.20
2023-08-11T02:15:30.588Z,69.00
2023-08-11T02:17:59.033Z,69.10
2023-08-11T02:20:27.494Z,69.00
2023-08-11T02:22:56.168Z,69.10
2023-08-11T02:25:27.182Z,68.90
2023-08-11T02:27:55.868Z,69.00
2023-08-11T02:30:25.599Z,69.00
2023-08-11T02:32:54.748Z,70.00
2023-08-11T02:35:23.660Z,69.20
2023-08-11T02:37:52.219Z,69.40
2023-08-11T02:40:22.075Z,69.90
2023-08-11T02:42:57.979Z,68.90
2023-08-11T02:45:28.188Z,69.20
2023-08-11T02:47:57.628Z,68.80
2023-08-11T02:50:26.055Z,68.40
2023-08-11T02:52:55.207Z,68.70
2023-08-11T02:55:23.977Z,69.00
2023-08-11T02:57:52.326Z,68.40
2023-08-11T03:00:20.970Z,68.60
2023-08-11T03:02:50.808Z,68.70
2023-08-11T03:05:19.940Z,69.00
2023-08-11T03:07:52.568Z,69.10
2023-08-11T03:10:20.830Z,69.60
2023-08-11T03:12:49.078Z,69.60
2023-08-11T03:15:17.901Z,69.60
2023-08-11T03:17:46.571Z,69.80
2023-08-11T03:20:17.315Z,69.60
2023-08-11T03:22:48.176Z,70.00
2023-08-11T03:25:21.365Z,70.40
2023-08-11T03:27:51.605Z,70.20
2023-08-11T03:30:29.263Z,70.20
2023-08-11T03:32:58.966Z,70.20
2023-08-11T03:35:49.575Z,70.20
2023-08-11T03:38:17.858Z,70.50
2023-08-11T03:40:46.158Z,70.30
2023-08-11T03:43:14.697Z,70.80
2023-08-11T03:45:43.191Z,70.70
2023-08-11T03:48:14.849Z,70.00
2023-08-11T03:50:43.263Z,70.40
2023-08-11T03:53:13.310Z,70.10
2023-08-11T03:55:44.215Z,70.40
2023-08-11T03:58:16.103Z,70.10
2023-08-11T04:00:46.148Z,70.30
2023-08-11T04:03:17.332Z,70.00
2023-08-11T04:05:45.648Z,69.90
2023-08-11T04:08:15.433Z,70.60
2023-08-11T04:10:43.673Z,69.90
2023-08-11T04:13:11.972Z,70.00
2023-08-11T04:15:40.620Z,69.80
2023-08-11T04:18:09.446Z,69.80
2023-08-11T04:20:38.232Z,70.40
2023-08-11T04:23:07.010Z,69.90
2023-08-11T04:25:39.536Z,69.90
2023-08-11T04:28:08.319Z,69.30
2023-08-11T04:30:36.703Z,69.20
2023-08-11T04:33:06.465Z,69.40
2023-08-11T04:35:36.978Z,69.50
2023-08-11T04:38:06.943Z,69.30
2023-08-11T04:40:38.527Z,69.30
2023-08-11T04:43:07.076Z,69.60
2023-08-11T04:45:41.187Z,70.40
2023-08-11T04:48:10.619Z,70.80
2023-08-11T04:50:41.950Z,70.70
2023-08-11T04:53:10.865Z,71.90
2023-08-11T04:55:43.378Z,71.70
2023-08-11T04:58:12.634Z,71.90
2023-08-11T05:00:41.053Z,72.20
2023-08-11T05:03:09.839Z,72.20
2023-08-11T05:05:38.008Z,72.30
2023-08-11T05:08:07.060Z,73.50
2023-08-11T05:10:35.384Z,73.60
2023-08-11T05:13:05.586Z,73.60
2023-08-11T05:15:34.754Z,73.60
2023-08-11T05:18:03.779Z,74.30
2023-08-11T05:20:32.202Z,74.00
2023-08-11T05:23:00.496Z,74.20
2023-08-11T05:25:28.874Z,75.10
2023-08-11T05:27:57.221Z,74.90
2023-08-11T05:30:29.252Z,75.30
2023-08-11T05:32:58.281Z,75.30
2023-08-11T05:35:27.766Z,75.00
2023-08-11T05:37:55.985Z,75.20
2023-08-11T05:40:24.678Z,75.50
2023-08-11T05:42:53.005Z,75.50
2023-08-11T05:45:21.261Z,75.80
2023-08-11T05:47:51.033Z,74.30
2023-08-11T05:50:19.692Z,73.70
2023-08-11T05:52:48.140Z,74.10
2023-08-11T05:55:16.608Z,74.50
2023-08-11T05:57:44.810Z,74.10
2023-08-11T06:00:15.178Z,74.00
2023-08-11T06:02:44.681Z,74.40
2023-08-11T06:05:14.530Z,74.50
2023-08-11T06:07:52.367Z,74.40
2023-08-11T06:10:28.864Z,74.30
2023-08-11T06:12:57.492Z,74.20
2023-08-11T06:15:25.741Z,73.90
2023-08-11T06:17:55.104Z,74.50
2023-08-11T06:20:38.655Z,73.90
2023-08-11T06:23:09.160Z,73.40
2023-08-11T06:25:38.129Z,73.50
2023-08-11T06:28:08.495Z,72.70
2023-08-11T06:30:36.839Z,72.20
2023-08-11T06:33:05.723Z,71.60
2023-08-11T06:35:36.002Z,71.40
2023-08-11T06:38:04.406Z,71.80
2023-08-11T06:40:32.884Z,69.80
2023-08-11T06:43:01.103Z,69.50
2023-08-11T06:45:29.605Z,69.20
2023-08-11T06:47:58.197Z,69.90
2023-08-11T06:50:26.782Z,68.30
2023-08-11T06:53:00.354Z,67.70
2023-08-11T06:55:28.937Z,68.30
2023-08-11T06:57:57.253Z,65.90
2023-08-11T07:00:25.816Z,66.50
2023-08-11T07:02:54.719Z,67.70
2023-08-11T07:05:23.114Z,66.80
2023-08-11T07:07:51.283Z,66.90
2023-08-11T07:10:20.917Z,66.50
2023-08-11T07:12:49.513Z,66.70
2023-08-11T07:15:17.987Z,66.00
2023-08-11T07:17:46.215Z,64.40
2023-08-11T07:20:14.663Z,64.00
2023-08-11T07:22:42.963Z,63.80
2023-08-11T07:25:11.196Z,63.80
2023-08-11T07:27:40.872Z,66.00
2023-08-11T07:30:10.982Z,63.10
2023-08-11T07:32:39.294Z,62.20
2023-08-11T07:35:08.774Z,61.20
2023-08-11T07:37:37.090Z,62.50
2023-08-11T07:40:07.759Z,61.10
2023-08-11T07:42:36.217Z,61.60
2023-08-11T07:45:06.789Z,60.50
2023-08-11T07:47:34.993Z,60.30
2023-08-11T07:50:03.590Z,60.40
2023-08-11T07:52:31.907Z,59.90
2023-08-11T07:55:00.401Z,61.20
2023-08-11T07:57:29.015Z,59.90
2023-08-11T07:59:58.471Z,59.40
2023-08-11T08:02:28.268Z,61.10
2023-08-11T08:05:11.826Z,58.70
2023-08-11T08:07:41.466Z,62.50
2023-08-11T08:10:10.562Z,58.70
2023-08-11T08:12:40.226Z,56.40
2023-08-11T08:15:10.295Z,57.60
2023-08-11T08:17:40.357Z,58.80
2023-08-11T08:20:10.609Z,58.60
2023-08-11T08:22:39.336Z,59.00
2023-08-11T08:25:08.425Z,58.30
2023-08-11T08:27:37.105Z,60.00
2023-08-11T08:30:06.563Z,61.50
2023-08-11T08:32:35.346Z,61.00
2023-08-11T08:35:07.186Z,58.10
2023-08-11T08:37:35.814Z,57.70
2023-08-11T08:40:05.533Z,59.00
2023-08-11T08:42:33.951Z,57.60
2023-08-11T08:45:02.784Z,57.80
2023-08-11T08:47:33.254Z,57.40
2023-08-11T08:50:04.806Z,59.00
2023-08-11T08:52:33.454Z,57.10
2023-08-11T08:55:02.693Z,56.00
2023-08-11T08:57:31.224Z,56.50
2023-08-11T08:59:59.716Z,58.90
2023-08-11T09:02:30.429Z,56.40
2023-08-11T09:04:58.841Z,54.60
2023-08-11T09:07:28.876Z,54.60
2023-08-11T09:09:57.114Z,55.80
2023-08-11T09:12:28.483Z,58.60
2023-08-11T09:14:57.225Z,55.00
2023-08-11T09:17:26.942Z,52.90
2023-08-11T09:19:55.455Z,47.60
2023-08-11T09:22:26.515Z,47.30
2023-08-11T09:24:56.924Z,47.30
2023-08-11T09:27:25.486Z,47.80
2023-08-11T09:29:54.310Z,47.60
2023-08-11T09:32:26.852Z,49.70
2023-08-11T09:34:55.956Z,49.40
2023-08-11T09:37:25.574Z,49.90
2023-08-11T09:40:01.305Z,50.40
2023-08-11T09:42:29.860Z,48.40
2023-08-11T09:44:58.277Z,46.80
2023-08-11T09:47:26.514Z,46.20
2023-08-11T09:49:54.685Z,46.10
2023-08-11T09:52:23.229Z,45.60
2023-08-11T09:54:53.020Z,47.30
2023-08-11T09:57:24.430Z,46.10
2023-08-11T09:59:55.214Z,40.30
2023-08-11T10:02:26.771Z,39.70
2023-08-11T10:04:59.208Z,42.90
2023-08-11T10:07:35.529Z,42.50
2023-08-11T10:10:08.364Z,42.70
2023-08-11T10:12:41.880Z,41.20
2023-08-11T10:15:12.294Z,42.00
2023-08-11T10:17:41.392Z,39.10
2023-08-11T10:20:11.215Z,40.10
2023-08-11T10:22:39.862Z,41.00
2023-08-11T10:25:10.129Z,37.60
2023-08-11T10:27:42.113Z,36.10
2023-08-11T10:30:12.812Z,36.80
2023-08-11T10:32:41.191Z,38.70
2023-08-11T10:35:14.689Z,36.30
2023-08-11T10:37:43.330Z,36.40
2023-08-11T10:40:12.846Z,37.00
2023-08-11T10:42:42.626Z,38.10
2023-08-11T10:45:11.878Z,34.00
2023-08-11T10:47:40.600Z,32.40
2023-08-11T10:50:11.927Z,34.20
2023-08-11T10:52:40.281Z,35.20
2023-08-11T10:55:09.901Z,36.80
2023-08-11T10:57:38.186Z,36.20
2023-08-11T11:00:10.551Z,35.50
2023-08-11T11:02:39.051Z,35.90
2023-08-11T11:05:09.374Z,32.70
2023-08-11T11:07:39.871Z,30.60
2023-08-11T11:10:09.933Z,30.30
2023-08-11T11:12:38.206Z,33.50
2023-08-11T11:15:09.550Z,33.60
2023-08-11T11:17:37.844Z,34.20
2023-08-11T11:20:07.830Z,34.10
2023-08-11T11:22:38.677Z,30.90
2023-08-11T11:25:07.946Z,32.50
2023-08-11T11:27:43.244Z,32.90
2023-08-11T11:30:14.031Z,31.90
2023-08-11T11:32:43.572Z,29.60
2023-08-11T11:35:12.381Z,31.70
2023-08-11T11:37:42.154Z,29.30
2023-08-11T11:40:13.178Z,29.30
2023-08-11T11:42:41.376Z,28.90
2023-08-11T11:45:11.845Z,28.70
2023-08-11T11:47:42.618Z,28.10
2023-08-11T11:50:11.324Z,26.40
2023-08-11T11:52:41.756Z,29.10
2023-08-11T11:55:10.279Z,29.00
2023-08-11T11:57:39.630Z,26.20
2023-08-11T12:00:17.480Z,27.10
2023-08-11T12:02:47.852Z,27.00
2023-08-11T12:05:17.074Z,26.30
2023-08-11T12:07:45.430Z,25.30
2023-08-11T12:10:13.803Z,29.40
2023-08-11T12:12:42.004Z,26.20
2023-08-11T12:15:11.928Z,27.20
2023-08-11T12:17:40.338Z,30.00
2023-08-11T12:20:11.621Z,27.80
2023-08-11T12:22:40.318Z,30.10
2023-08-11T12:25:10.963Z,30.60
2023-08-11T12:27:40.508Z,29.20
2023-08-11T12:30:11.851Z,30.50
2023-08-11T12:32:40.262Z,31.20
2023-08-11T12:35:12.885Z,34.10
2023-08-11T12:37:41.274Z,31.20
2023-08-11T12:40:11.243Z,30.40
2023-08-11T12:42:39.569Z,31.10
2023-08-11T12:45:09.417Z,32.80
2023-08-11T12:47:37.839Z,31.20
2023-08-11T12:50:07.472Z,30.80
2023-08-11T12:52:37.624Z,32.50
2023-08-11T12:55:06.672Z,28.90
2023-08-11T12:57:35.437Z,28.80
2023-08-11T13:00:03.736Z,27.00
2023-08-11T13:02:32.522Z,26.50
2023-08-11T13:05:00.787Z,27.30
2023-08-11T13:07:29.049Z,29.30
2023-08-11T13:09:58.771Z,23.40
2023-08-11T13:12:27.027Z,26.80
2023-08-11T13:14:55.279Z,23.50
2023-08-11T13:17:23.426Z,25.90
2023-08-11T13:19:51.706Z,26.40
2023-08-11T13:22:19.952Z,21.70
2023-08-11T13:24:49.253Z,21.50
2023-08-11T13:27:18.909Z,23.60
2023-08-11T13:30:14.711Z,21.50
2023-08-11T13:32:43.655Z,21.90
2023-08-11T13:35:13.121Z,22.90
2023-08-11T13:37:41.387Z,22.70
2023-08-11T13:40:11.129Z,24.60
2023-08-11T13:42:43.068Z,24.50
2023-08-11T13:45:12.319Z,23.90
2023-08-11T13:47:40.730Z,23.80
2023-08-11T13:50:10.236Z,25.10
2023-08-11T13:52:38.365Z,27.70
2023-08-11T13:55:10.205Z,25.10
2023-08-11T13:57:40.408Z,25.40
2023-08-11T14:00:13.387Z,21.70
2023-08-11T14:02:42.301Z,21.30
2023-08-11T14:05:11.215Z,20.00
2023-08-11T14:07:39.381Z,20.30
2023-08-11T14:10:08.622Z,21.70
2023-08-11T14:12:36.741Z,21.40
2023-08-11T14:15:08.366Z,22.10
2023-08-11T14:17:36.459Z,21.10
2023-08-11T14:20:05.326Z,22.70
2023-08-11T14:22:33.722Z,20.60
2023-08-11T14:25:01.797Z,20.80
2023-08-11T14:27:29.866Z,23.90
2023-08-11T14:29:58.343Z,25.90
2023-08-11T14:32:27.900Z,21.30
2023-08-11T14:34:55.985Z,23.00
2023-08-11T14:37:24.081Z,21.70
2023-08-11T14:39:52.122Z,22.90
2023-08-11T14:42:20.221Z,22.60
2023-08-11T14:44:48.370Z,24.90
2023-08-11T14:47:16.775Z,25.90
2023-08-11T14:49:46.643Z,24.90
2023-08-11T14:52:15.453Z,23.50
2023-08-11T14:54:43.785Z,25.40
2023-08-11T14:57:14.077Z,25.80
2023-08-11T14:59:42.681Z,24.50
2023-08-11T15:02:11.907Z,24.00
2023-08-11T15:04:40.283Z,23.90
2023-08-11T15:07:09.893Z,27.10
2023-08-11T15:09:38.198Z,27.00
2023-08-11T15:12:08.405Z,25.60
2023-08-11T15:14:36.825Z,25.20
2023-08-11T15:17:05.140Z,25.90
2023-08-11T15:19:33.865Z,27.30
2023-08-11T15:22:02.053Z,25.80
2023-08-11T15:24:31.644Z,26.10
2023-08-11T15:26:59.781Z,27.20
2023-08-11T15:29:27.968Z,26.00
2023-08-11T15:31:56.068Z,28.40
2023-08-11T15:34:24.160Z,26.30
2023-08-11T15:36:52.311Z,25.10
2023-08-11T15:39:21.072Z,25.00
2023-08-11T15:41:50.620Z,24.40
2023-08-11T15:44:19.701Z,24.90
2023-08-11T15:46:49.786Z,25.70
2023-08-11T15:49:18.044Z,25.00
2023-08-11T15:51:46.292Z,25.80
2023-08-11T15:54:14.400Z,26.80
2023-08-11T15:56:42.480Z,27.00
2023-08-11T15:59:11.964Z,27.00
2023-08-11T16:01:41.942Z,28.10
2023-08-11T16:04:11.160Z,27.40
2023-08-11T16:06:39.325Z,27.70
2023-08-11T16:09:08.335Z,28.00
2023-08-11T16:11:36.512Z,28.70
2023-08-11T16:14:04.752Z,28.80
2023-08-11T16:16:34.255Z,29.00
2023-08-11T16:19:02.379Z,29.90
2023-08-11T16:21:30.619Z,28.80
2023-08-11T16:23:58.837Z,28.00
2023-08-11T16:26:27.035Z,28.60
2023-08-11T16:28:55.177Z,30.30
2023-08-11T16:31:23.446Z,30.50
2023-08-11T16:33:52.873Z,30.70
2023-08-11T16:36:21.427Z,30.40
2023-08-11T16:38:49.626Z,30.50
2023-08-11T16:41:18.376Z,30.60
2023-08-11T16:43:46.560Z,29.40
2023-08-11T16:46:16.897Z,30.50
2023-08-11T16:48:45.427Z,31.10
2023-08-11T16:51:15.374Z,32.70
2023-08-11T16:53:43.770Z,32.40
2023-08-11T16:56:11.945Z,31.60
2023-08-11T16:58:40.111Z,30.60
2023-08-11T17:01:08.265Z,30.70
2023-08-11T17:03:36.812Z,31.10
2023-08-11T17:06:05.267Z,32.00
2023-08-11T17:08:34.719Z,32.20
2023-08-11T17:11:04.033Z,32.30
2023-08-11T17:13:32.459Z,32.90
2023-08-11T17:16:00.703Z,33.80
2023-08-11T17:18:28.864Z,33.30
2023-08-11T17:20:56.961Z,33.90
2023-08-11T17:23:25.123Z,34.20
2023-08-11T17:25:55.334Z,34.80
2023-08-11T17:28:23.457Z,35.10
2023-08-11T17:30:51.756Z,36.10
2023-08-11T17:33:19.926Z,36.90
2023-08-11T17:35:48.084Z,36.80
2023-08-11T17:38:16.321Z,37.00
2023-08-11T17:40:44.490Z,36.80
2023-08-11T17:43:14.067Z,37.40
2023-08-11T17:45:42.499Z,37.40
2023-08-11T17:48:10.926Z,37.70
2023-08-11T17:50:39.122Z,39.60
2023-08-11T17:53:07.542Z,40.40
2023-08-11T17:55:36.098Z,39.70
2023-08-11T17:58:04.536Z,39.50
2023-08-11T18:00:34.122Z,39.20
2023-08-11T18:03:02.381Z,39.60
2023-08-11T18:05:30.694Z,40.10
2023-08-11T18:07:58.795Z,40.50
2023-08-11T18:10:26.969Z,40.90
2023-08-11T18:12:55.072Z,42.20
2023-08-11T18:15:23.936Z,42.20
2023-08-11T18:17:54.794Z,43.90
2023-08-11T18:20:23.311Z,43.30
2023-08-11T18:22:51.474Z,43.40
2023-08-11T18:25:19.921Z,42.80
2023-08-11T18:27:48.325Z,43.00
2023-08-11T18:30:16.701Z,43.80
2023-08-11T18:32:46.321Z,43.60
2023-08-11T18:35:16.044Z,42.90
2023-08-11T18:37:44.196Z,43.40
2023-08-11T18:40:13.065Z,43.50
2023-08-11T18:42:41.301Z,43.80
2023-08-11T18:45:10.360Z,44.60
2023-08-11T18:47:38.829Z,44.60
2023-08-11T18:50:08.252Z,43.90
2023-08-11T18:52:37.934Z,43.80
2023-08-11T18:55:06.680Z,43.50
2023-08-11T18:57:35.675Z,44.60
2023-08-11T19:00:04.445Z,44.20
2023-08-11T19:02:32.738Z,44.90
2023-08-11T19:05:01.024Z,45.40
2023-08-11T19:07:29.429Z,45.80
2023-08-11T19:09:58.963Z,45.90
2023-08-11T19:12:27.181Z,45.70
2023-08-11T19:14:55.608Z,46.00
2023-08-11T19:17:23.784Z,46.90
2023-08-11T19:19:52.206Z,47.80
2023-08-11T19:22:20.617Z,47.30
2023-08-11T19:24:48.753Z,48.10
2023-08-11T19:27:18.493Z,48.00
2023-08-11T19:29:46.682Z,47.60
2023-08-11T19:32:14.850Z,47.90
2023-08-11T19:34:43.045Z,48.00
2023-08-11T19:37:12.133Z,48.50
2023-08-11T19:39:40.271Z,49.20
2023-08-11T19:42:08.892Z,49.30
2023-08-11T19:44:41.288Z,49.70
2023-08-11T19:47:09.589Z,49.70
2023-08-11T19:49:37.774Z,49.80
2023-08-11T19:52:06.681Z,50.10
2023-08-11T19:54:34.890Z,49.70
2023-08-11T19:57:03.127Z,49.60
2023-08-11T19:59:31.342Z,49.90
2023-08-11T20:02:00.819Z,50.10
2023-08-11T20:04:30.381Z,50.30
2023-08-11T20:06:58.472Z,50.20
2023-08-11T20:09:28.254Z,50.50
2023-08-11T20:11:57.668Z,50.60
2023-08-11T20:14:26.075Z,50.80
2023-08-11T20:16:54.540Z,50.90
2023-08-11T20:19:25.215Z,51.40
2023-08-11T20:21:53.642Z,51.80
2023-08-11T20:24:23.422Z,51.70
2023-08-11T20:26:57.132Z,51.80
2023-08-11T20:29:25.696Z,51.80
2023-08-11T20:31:57.087Z,51.40
2023-08-11T20:34:27.691Z,52.10
2023-08-11T20:36:56.777Z,51.70
2023-08-11T20:39:26.385Z,51.50
2023-08-11T20:41:55.972Z,51.90
2023-08-11T20:44:24.870Z,51.40
2023-08-11T20:46:54.574Z,52.40
2023-08-11T20:49:23.200Z,51.80
2023-08-11T20:51:54.946Z,52.00
2023-08-11T20:54:23.424Z,52.10
2023-08-11T20:56:51.755Z,52.40
2023-08-11T20:59:20.306Z,52.40
2023-08-11T21:01:48.547Z,52.50
2023-08-11T21:04:16.804Z,52.40
2023-08-11T21:06:45.004Z,52.60
2023-08-11T21:09:14.584Z,53.00
2023-08-11T21:11:42.768Z,52.90
2023-08-11T21:14:11.733Z,53.00
2023-08-11T21:16:41.079Z,53.30
2023-08-11T21:19:09.550Z,53.60
2023-08-11T21:21:37.731Z,53.60
2023-08-11T21:24:06.537Z,54.20
2023-08-11T21:26:36.135Z,54.20
2023-08-11T21:29:04.335Z,54.20
2023-08-11T21:31:32.488Z,53.90
2023-08-11T21:34:02.761Z,53.90
2023-08-11T21:36:30.929Z,54.70
2023-08-11T21:38:59.900Z,55.10
2023-08-11T21:41:28.114Z,55.40
2023-08-11T21:43:57.638Z,54.70
2023-08-11T21:46:26.176Z,54.70
2023-08-11T21:48:54.395Z,54.50
2023-08-11T21:51:22.611Z,55.20
2023-08-11T21:53:50.921Z,55.10
2023-08-11T21:56:19.140Z,55.40
2023-08-11T21:58:47.378Z,55.90
2023-08-11T22:01:17.046Z,55.20
2023-08-11T22:03:45.517Z,55.00
2023-08-11T22:06:15.057Z,55.20
2023-08-11T22:08:43.530Z,55.60
2023-08-11T22:11:26.029Z,55.80
2023-08-11T22:14:00.215Z,56.20
2023-08-11T22:16:29.936Z,56.60
2023-08-11T22:18:58.498Z,57.80
2023-08-11T22:21:26.669Z,57.90
2023-08-11T22:23:54.926Z,58.10
2023-08-11T22:26:23.200Z,57.60
2023-08-11T22:28:51.325Z,58.10
2023-08-11T22:31:19.624Z,57.60
2023-08-11T22:33:49.215Z,57.70
2023-08-11T22:36:17.426Z,56.90
2023-08-11T22:38:45.727Z,57.10
2023-08-11T22:41:14.068Z,57.10
2023-08-11T22:43:42.539Z,57.20
2023-08-11T22:46:10.764Z,57.90
2023-08-11T22:48:39.167Z,59.00
2023-08-11T22:51:09.021Z,59.30
2023-08-11T22:53:37.269Z,59.90
2023-08-11T22:56:05.773Z,59.90
2023-08-11T22:58:33.990Z,60.30
2023-08-11T23:01:02.708Z,59.20
2023-08-11T23:03:30.901Z,59.90
2023-08-11T23:05:59.044Z,59.40
2023-08-11T23:08:28.687Z,58.90
2023-08-11T23:10:56.943Z,58.50
2023-08-11T23:13:25.218Z,58.60
2023-08-11T23:15:53.391Z,58.80
2023-08-11T23:18:21.864Z,58.60
2023-08-11T23:20:50.037Z,59.00
2023-08-11T23:23:18.275Z,59.50
2023-08-11T23:25:48.072Z,60.30
2023-08-11T23:28:16.202Z,59.70
2023-08-11T23:30:44.446Z,59.70
2023-08-11T23:33:13.318Z,60.50
2023-08-11T23:35:41.492Z,60.70
2023-08-11T23:38:09.677Z,60.60
2023-08-11T23:40:38.312Z,60.90
2023-08-11T23:43:07.987Z,61.30
2023-08-11T23:45:36.455Z,61.30
2023-08-11T23:48:06.184Z,61.00
2023-08-11T23:50:34.557Z,59.70
2023-08-11T23:53:03.222Z,61.00
2023-08-11T23:55:31.497Z,61.40
2023-08-11T23:57:59.712Z,61.70
